sensor_id;sensor_type;location;lat;lon;timestamp;temperature;humidity
4596;DHT22;2310;49.978;8.742;2022-12-07T00:00:22;6.50;99.90
4596;DHT22;2310;49.978;8.742;2022-12-07T00:04:24;6.50;99.90
4596;DHT22;2310;49.978;8.742;2022-12-07T00:08:25;6.50;99.90
4596;DHT22;2310;49.978;8.742;2022-12-07T00:12:26;6.50;99.90
4596;DHT22;2310;49.978;8.742;2022-12-07T00:16:29;6.50;99.90
4596;DHT22;2310;49.978;8.742;2022-12-07T00:20:31;6.50;99.90
4596;DHT22;2310;49.978;8.742;2022-12-07T00:24:32;6.50;99.90
4596;DHT22;2310;49.978;8.742;2022-12-07T00:28:33;6.40;99.90
4596;DHT22;2310;49.978;8.742;2022-12-07T00:32:35;6.50;99.90
4596;DHT22;2310;49.978;8.742;2022-12-07T00:36:36;6.60;99.90
4596;DHT22;2310;49.978;8.742;2022-12-07T00:40:37;6.60;99.90
4596;DHT22;2310;49.978;8.742;2022-12-07T00:44:38;6.50;99.90
4596;DHT22;2310;49.978;8.742;2022-12-07T00:48:40;6.50;99.90
4596;DHT22;2310;49.978;8.742;2022-12-07T00:52:41;6.60;99.90
4596;DHT22;2310;49.978;8.742;2022-12-07T00:56:42;6.50;99.90
4596;DHT22;2310;49.978;8.742;2022-12-07T01:00:43;6.60;99.90
4596;DHT22;2310;49.978;8.742;2022-12-07T01:04:45;6.50;99.90
4596;DHT22;2310;49.978;8.742;2022-12-07T01:08:46;6.60;99.90
4596;DHT22;2310;49.978;8.742;2022-12-07T01:12:47;6.60;99.90
4596;DHT22;2310;49.978;8.742;2022-12-07T01:16:48;6.50;99.90
4596;DHT22;2310;49.978;8.742;2022-12-07T01:21:13;6.30;99.90
4596;DHT22;2310;49.978;8.742;2022-12-07T01:25:11;6.30;99.90
4596;DHT22;2310;49.978;8.742;2022-12-07T01:29:12;6.30;99.90
4596;DHT22;2310;49.978;8.742;2022-12-07T01:33:13;6.40;99.90
4596;DHT22;2310;49.978;8.742;2022-12-07T01:37:14;6.60;99.90
4596;DHT22;2310;49.978;8.742;2022-12-07T01:41:16;6.60;99.90
4596;DHT22;2310;49.978;8.742;2022-12-07T01:45:36;6.70;99.90
4596;DHT22;2310;49.978;8.742;2022-12-07T01:49:46;6.60;99.90
4596;DHT22;2310;49.978;8.742;2022-12-07T01:53:45;6.40;99.90
4596;DHT22;2310;49.978;8.742;2022-12-07T01:57:49;6.50;99.90
4596;DHT22;2310;49.978;8.742;2022-12-07T02:01:51;6.50;99.90
4596;DHT22;2310;49.978;8.742;2022-12-07T02:05:52;6.40;99.90
4596;DHT22;2310;49.978;8.742;2022-12-07T02:09:54;6.50;99.90
4596;DHT22;2310;49.978;8.742;2022-12-07T02:13:55;6.40;99.90
4596;DHT22;2310;49.978;8.742;2022-12-07T02:31:21;6.30;99.90
4596;DHT22;2310;49.978;8.742;2022-12-07T02:35:33;6.50;99.90
4596;DHT22;2310;49.978;8.742;2022-12-07T02:39:48;6.50;99.90
4596;DHT22;2310;49.978;8.742;2022-12-07T02:43:54;6.50;99.90
4596;DHT22;2310;49.978;8.742;2022-12-07T02:47:58;6.40;99.90
4596;DHT22;2310;49.978;8.742;2022-12-07T02:52:00;6.40;99.90
4596;DHT22;2310;49.978;8.742;2022-12-07T03:00:23;6.60;99.90
4596;DHT22;2310;49.978;8.742;2022-12-07T03:04:43;6.60;99.90
4596;DHT22;2310;49.978;8.742;2022-12-07T03:17:29;6.40;99.90
4596;DHT22;2310;49.978;8.742;2022-12-07T03:21:37;6.50;99.90
4596;DHT22;2310;49.978;8.742;2022-12-07T03:25:45;6.60;99.90
4596;DHT22;2310;49.978;8.742;2022-12-07T03:30:08;6.60;99.90
4596;DHT22;2310;49.978;8.742;2022-12-07T03:34:19;6.50;99.90
4596;DHT22;2310;49.978;8.742;2022-12-07T03:39:12;6.50;99.90
4596;DHT22;2310;49.978;8.742;2022-12-07T03:42:29;6.50;99.90
4596;DHT22;2310;49.978;8.742;2022-12-07T03:46:43;6.30;99.90
4596;DHT22;2310;49.978;8.742;2022-12-07T03:51:01;6.40;99.90
4596;DHT22;2310;49.978;8.742;2022-12-07T03:55:09;6.40;99.90
4596;DHT22;2310;49.978;8.742;2022-12-07T03:59:11;6.30;99.90
4596;DHT22;2310;49.978;8.742;2022-12-07T04:03:13;6.40;99.90
4596;DHT22;2310;49.978;8.742;2022-12-07T04:07:14;6.50;99.90
4596;DHT22;2310;49.978;8.742;2022-12-07T04:11:15;6.30;99.90
4596;DHT22;2310;49.978;8.742;2022-12-07T04:15:16;6.50;99.90
4596;DHT22;2310;49.978;8.742;2022-12-07T04:19:19;6.50;99.90
4596;DHT22;2310;49.978;8.742;2022-12-07T04:23:21;6.50;99.90
4596;DHT22;2310;49.978;8.742;2022-12-07T04:27:22;6.50;99.90
4596;DHT22;2310;49.978;8.742;2022-12-07T04:31:23;6.50;99.90
4596;DHT22;2310;49.978;8.742;2022-12-07T04:35:24;6.40;99.90
4596;DHT22;2310;49.978;8.742;2022-12-07T04:39:30;6.20;99.90
4596;DHT22;2310;49.978;8.742;2022-12-07T04:43:32;6.10;99.90
4596;DHT22;2310;49.978;8.742;2022-12-07T04:47:34;6.30;99.90
4596;DHT22;2310;49.978;8.742;2022-12-07T04:51:35;6.40;99.90
4596;DHT22;2310;49.978;8.742;2022-12-07T04:55:36;6.60;99.90
4596;DHT22;2310;49.978;8.742;2022-12-07T04:59:37;6.50;99.90
4596;DHT22;2310;49.978;8.742;2022-12-07T05:03:40;6.50;99.90
4596;DHT22;2310;49.978;8.742;2022-12-07T05:07:41;6.60;99.90
4596;DHT22;2310;49.978;8.742;2022-12-07T05:11:42;6.60;99.90
4596;DHT22;2310;49.978;8.742;2022-12-07T05:15:44;6.20;99.90
4596;DHT22;2310;49.978;8.742;2022-12-07T05:19:45;6.40;99.90
4596;DHT22;2310;49.978;8.742;2022-12-07T05:23:46;6.50;99.90
4596;DHT22;2310;49.978;8.742;2022-12-07T05:27:47;6.40;99.90
4596;DHT22;2310;49.978;8.742;2022-12-07T05:31:48;6.50;99.90
4596;DHT22;2310;49.978;8.742;2022-12-07T05:35:49;6.40;99.90
4596;DHT22;2310;49.978;8.742;2022-12-07T05:39:51;6.60;99.90
4596;DHT22;2310;49.978;8.742;2022-12-07T05:43:53;6.50;99.90
4596;DHT22;2310;49.978;8.742;2022-12-07T05:47:54;6.60;99.90
4596;DHT22;2310;49.978;8.742;2022-12-07T05:51:55;6.50;99.90
4596;DHT22;2310;49.978;8.742;2022-12-07T05:55:56;6.30;99.90
4596;DHT22;2310;49.978;8.742;2022-12-07T05:59:57;6.40;99.90
4596;DHT22;2310;49.978;8.742;2022-12-07T06:03:59;6.60;99.90
4596;DHT22;2310;49.978;8.742;2022-12-07T06:08:00;6.50;99.90
4596;DHT22;2310;49.978;8.742;2022-12-07T06:12:04;6.40;99.90
4596;DHT22;2310;49.978;8.742;2022-12-07T06:16:24;6.40;99.90
4596;DHT22;2310;49.978;8.742;2022-12-07T06:20:25;6.60;99.90
4596;DHT22;2310;49.978;8.742;2022-12-07T06:24:27;6.70;99.90
4596;DHT22;2310;49.978;8.742;2022-12-07T06:28:28;6.60;99.90
4596;DHT22;2310;49.978;8.742;2022-12-07T06:32:29;6.50;99.90
4596;DHT22;2310;49.978;8.742;2022-12-07T06:36:30;6.50;99.90
4596;DHT22;2310;49.978;8.742;2022-12-07T06:40:32;6.50;99.90
4596;DHT22;2310;49.978;8.742;2022-12-07T06:44:33;6.70;99.90
4596;DHT22;2310;49.978;8.742;2022-12-07T06:48:34;6.60;99.90
4596;DHT22;2310;49.978;8.742;2022-12-07T06:52:35;6.70;99.90
4596;DHT22;2310;49.978;8.742;2022-12-07T06:56:37;6.70;99.90
4596;DHT22;2310;49.978;8.742;2022-12-07T07:00:38;6.60;99.90
4596;DHT22;2310;49.978;8.742;2022-12-07T07:04:39;6.70;99.90
4596;DHT22;2310;49.978;8.742;2022-12-07T07:08:40;6.60;99.90
4596;DHT22;2310;49.978;8.742;2022-12-07T07:12:42;6.60;99.90
4596;DHT22;2310;49.978;8.742;2022-12-07T07:16:43;6.70;99.90
4596;DHT22;2310;49.978;8.742;2022-12-07T07:20:44;6.80;99.90
4596;DHT22;2310;49.978;8.742;2022-12-07T07:24:45;6.80;99.90
4596;DHT22;2310;49.978;8.742;2022-12-07T07:28:47;6.70;99.90
4596;DHT22;2310;49.978;8.742;2022-12-07T07:32:48;6.70;99.90
4596;DHT22;2310;49.978;8.742;2022-12-07T07:36:49;6.50;99.90
4596;DHT22;2310;49.978;8.742;2022-12-07T07:40:50;6.60;99.90
4596;DHT22;2310;49.978;8.742;2022-12-07T07:44:51;6.60;99.90
4596;DHT22;2310;49.978;8.742;2022-12-07T07:48:52;6.60;99.90
4596;DHT22;2310;49.978;8.742;2022-12-07T07:52:53;6.60;99.90
4596;DHT22;2310;49.978;8.742;2022-12-07T07:56:54;6.50;99.90
4596;DHT22;2310;49.978;8.742;2022-12-07T08:00:55;6.70;99.90
4596;DHT22;2310;49.978;8.742;2022-12-07T08:04:57;6.90;99.90
4596;DHT22;2310;49.978;8.742;2022-12-07T08:08:58;6.90;99.90
4596;DHT22;2310;49.978;8.742;2022-12-07T08:12:59;7.00;99.90
4596;DHT22;2310;49.978;8.742;2022-12-07T08:17:13;6.90;99.90
4596;DHT22;2310;49.978;8.742;2022-12-07T08:21:14;7.00;99.90
4596;DHT22;2310;49.978;8.742;2022-12-07T08:25:16;6.80;99.90
4596;DHT22;2310;49.978;8.742;2022-12-07T08:29:18;6.90;99.90
4596;DHT22;2310;49.978;8.742;2022-12-07T08:33:19;7.00;99.90
4596;DHT22;2310;49.978;8.742;2022-12-07T08:37:22;7.20;99.90
4596;DHT22;2310;49.978;8.742;2022-12-07T08:41:23;7.20;99.90
4596;DHT22;2310;49.978;8.742;2022-12-07T08:45:24;7.10;99.90
4596;DHT22;2310;49.978;8.742;2022-12-07T08:49:41;7.00;99.90
4596;DHT22;2310;49.978;8.742;2022-12-07T08:53:44;7.10;99.90
4596;DHT22;2310;49.978;8.742;2022-12-07T08:57:46;7.30;99.90
4596;DHT22;2310;49.978;8.742;2022-12-07T09:01:47;7.20;99.90
4596;DHT22;2310;49.978;8.742;2022-12-07T09:05:49;7.30;99.90
4596;DHT22;2310;49.978;8.742;2022-12-07T09:09:50;7.40;99.90
4596;DHT22;2310;49.978;8.742;2022-12-07T09:13:51;7.50;99.90
4596;DHT22;2310;49.978;8.742;2022-12-07T09:17:52;7.60;99.90
4596;DHT22;2310;49.978;8.742;2022-12-07T09:21:53;7.70;99.90
4596;DHT22;2310;49.978;8.742;2022-12-07T09:25:54;7.80;99.90
4596;DHT22;2310;49.978;8.742;2022-12-07T09:29:56;7.70;99.90
4596;DHT22;2310;49.978;8.742;2022-12-07T09:33:59;7.80;99.90
4596;DHT22;2310;49.978;8.742;2022-12-07T09:38:00;8.00;99.90
4596;DHT22;2310;49.978;8.742;2022-12-07T09:42:03;7.70;99.90
4596;DHT22;2310;49.978;8.742;2022-12-07T09:46:05;7.70;99.90
4596;DHT22;2310;49.978;8.742;2022-12-07T09:50:17;7.90;99.90
4596;DHT22;2310;49.978;8.742;2022-12-07T09:54:16;8.00;99.90
4596;DHT22;2310;49.978;8.742;2022-12-07T09:58:23;8.10;99.90
4596;DHT22;2310;49.978;8.742;2022-12-07T10:06:41;8.90;99.90
4596;DHT22;2310;49.978;8.742;2022-12-07T10:10:43;9.10;99.90
4596;DHT22;2310;49.978;8.742;2022-12-07T10:15:01;9.00;99.90
4596;DHT22;2310;49.978;8.742;2022-12-07T10:19:26;8.80;99.90
4596;DHT22;2310;49.978;8.742;2022-12-07T10:23:27;9.60;99.90
4596;DHT22;2310;49.978;8.742;2022-12-07T10:27:32;9.70;99.90
4596;DHT22;2310;49.978;8.742;2022-12-07T10:31:35;9.70;99.90
4596;DHT22;2310;49.978;8.742;2022-12-07T10:35:43;10.00;99.90
4596;DHT22;2310;49.978;8.742;2022-12-07T10:39:52;10.00;99.90
4596;DHT22;2310;49.978;8.742;2022-12-07T10:43:55;9.70;99.90
4596;DHT22;2310;49.978;8.742;2022-12-07T11:05:19;8.90;99.90
4596;DHT22;2310;49.978;8.742;2022-12-07T11:09:49;9.00;99.90
4596;DHT22;2310;49.978;8.742;2022-12-07T11:13:58;9.10;99.90
4596;DHT22;2310;49.978;8.742;2022-12-07T11:18:24;8.80;99.90
4596;DHT22;2310;49.978;8.742;2022-12-07T11:27:09;8.80;99.90
4596;DHT22;2310;49.978;8.742;2022-12-07T11:31:14;8.70;99.90
4596;DHT22;2310;49.978;8.742;2022-12-07T11:39:54;9.50;99.90
4596;DHT22;2310;49.978;8.742;2022-12-07T11:44:06;9.70;99.90
4596;DHT22;2310;49.978;8.742;2022-12-07T11:52:49;10.00;99.90
4596;DHT22;2310;49.978;8.742;2022-12-07T11:56:53;9.70;99.90
4596;DHT22;2310;49.978;8.742;2022-12-07T12:09:34;9.60;99.90
4596;DHT22;2310;49.978;8.742;2022-12-07T12:13:54;9.40;99.90
4596;DHT22;2310;49.978;8.742;2022-12-07T12:22:17;9.50;99.90
4596;DHT22;2310;49.978;8.742;2022-12-07T12:26:21;9.50;99.90
4596;DHT22;2310;49.978;8.742;2022-12-07T12:43:43;9.50;99.90
4596;DHT22;2310;49.978;8.742;2022-12-07T12:48:00;9.50;99.90
4596;DHT22;2310;49.978;8.742;2022-12-07T12:56:24;9.50;99.90
4596;DHT22;2310;49.978;8.742;2022-12-07T13:00:23;9.60;99.90
4596;DHT22;2310;49.978;8.742;2022-12-07T13:04:34;9.50;99.90
4596;DHT22;2310;49.978;8.742;2022-12-07T13:08:32;9.60;99.90
4596;DHT22;2310;49.978;8.742;2022-12-07T13:12:35;9.70;99.90
4596;DHT22;2310;49.978;8.742;2022-12-07T13:16:38;9.70;99.90
4596;DHT22;2310;49.978;8.742;2022-12-07T13:20:53;9.70;99.90
4596;DHT22;2310;49.978;8.742;2022-12-07T13:24:56;9.60;99.90
4596;DHT22;2310;49.978;8.742;2022-12-07T13:29:05;9.50;99.90
4596;DHT22;2310;49.978;8.742;2022-12-07T13:33:06;9.50;99.90
4596;DHT22;2310;49.978;8.742;2022-12-07T13:37:24;9.70;99.90
4596;DHT22;2310;49.978;8.742;2022-12-07T13:41:28;9.70;99.90
4596;DHT22;2310;49.978;8.742;2022-12-07T13:45:32;9.90;99.90
4596;DHT22;2310;49.978;8.742;2022-12-07T13:49:54;9.60;99.90
4596;DHT22;2310;49.978;8.742;2022-12-07T13:54:08;10.30;99.90
4596;DHT22;2310;49.978;8.742;2022-12-07T13:58:01;10.60;99.90
4596;DHT22;2310;49.978;8.742;2022-12-07T14:02:02;10.30;99.90
4596;DHT22;2310;49.978;8.742;2022-12-07T14:14:50;9.70;99.90
4596;DHT22;2310;49.978;8.742;2022-12-07T14:18:52;9.70;99.90
4596;DHT22;2310;49.978;8.742;2022-12-07T14:22:56;9.70;99.90
4596;DHT22;2310;49.978;8.742;2022-12-07T14:26:58;9.50;99.90
4596;DHT22;2310;49.978;8.742;2022-12-07T14:31:00;9.50;99.90
4596;DHT22;2310;49.978;8.742;2022-12-07T14:39:11;9.30;99.90
4596;DHT22;2310;49.978;8.742;2022-12-07T14:43:16;9.30;99.90
4596;DHT22;2310;49.978;8.742;2022-12-07T14:47:17;9.20;99.90
4596;DHT22;2310;49.978;8.742;2022-12-07T14:51:20;9.20;99.90
4596;DHT22;2310;49.978;8.742;2022-12-07T14:55:29;9.10;99.90
4596;DHT22;2310;49.978;8.742;2022-12-07T14:59:30;9.10;99.90
4596;DHT22;2310;49.978;8.742;2022-12-07T15:03:31;9.00;99.90
4596;DHT22;2310;49.978;8.742;2022-12-07T15:07:32;9.00;99.90
4596;DHT22;2310;49.978;8.742;2022-12-07T15:11:34;8.90;99.90
4596;DHT22;2310;49.978;8.742;2022-12-07T15:15:35;8.80;99.90
4596;DHT22;2310;49.978;8.742;2022-12-07T15:19:36;8.80;99.90
4596;DHT22;2310;49.978;8.742;2022-12-07T15:23:38;8.60;99.90
4596;DHT22;2310;49.978;8.742;2022-12-07T15:27:39;8.60;99.90
4596;DHT22;2310;49.978;8.742;2022-12-07T15:31:40;8.60;99.90
4596;DHT22;2310;49.978;8.742;2022-12-07T15:35:44;8.50;99.90
4596;DHT22;2310;49.978;8.742;2022-12-07T15:39:45;8.50;99.90
4596;DHT22;2310;49.978;8.742;2022-12-07T15:43:47;8.40;99.90
4596;DHT22;2310;49.978;8.742;2022-12-07T15:48:06;8.30;99.90
4596;DHT22;2310;49.978;8.742;2022-12-07T15:52:09;8.20;99.90
4596;DHT22;2310;49.978;8.742;2022-12-07T15:56:11;8.20;99.90
4596;DHT22;2310;49.978;8.742;2022-12-07T16:00:13;8.20;99.90
4596;DHT22;2310;49.978;8.742;2022-12-07T16:04:14;8.20;99.90
4596;DHT22;2310;49.978;8.742;2022-12-07T16:08:16;8.20;99.90
4596;DHT22;2310;49.978;8.742;2022-12-07T16:12:17;8.20;99.90
4596;DHT22;2310;49.978;8.742;2022-12-07T16:16:19;8.20;99.90
4596;DHT22;2310;49.978;8.742;2022-12-07T16:20:20;8.10;99.90
4596;DHT22;2310;49.978;8.742;2022-12-07T16:24:22;8.20;99.90
4596;DHT22;2310;49.978;8.742;2022-12-07T16:28:23;8.10;99.90
4596;DHT22;2310;49.978;8.742;2022-12-07T16:32:24;8.00;99.90
4596;DHT22;2310;49.978;8.742;2022-12-07T16:36:25;8.00;99.90
4596;DHT22;2310;49.978;8.742;2022-12-07T16:40:30;8.00;99.90
4596;DHT22;2310;49.978;8.742;2022-12-07T16:44:31;8.00;99.90
4596;DHT22;2310;49.978;8.742;2022-12-07T16:48:37;8.00;99.90
4596;DHT22;2310;49.978;8.742;2022-12-07T16:52:39;8.20;99.90
4596;DHT22;2310;49.978;8.742;2022-12-07T16:56:40;8.10;99.90
4596;DHT22;2310;49.978;8.742;2022-12-07T17:00:44;8.00;99.90
4596;DHT22;2310;49.978;8.742;2022-12-07T17:04:45;7.90;99.90
4596;DHT22;2310;49.978;8.742;2022-12-07T17:08:48;7.80;99.90
4596;DHT22;2310;49.978;8.742;2022-12-07T17:12:49;7.80;99.90
4596;DHT22;2310;49.978;8.742;2022-12-07T17:16:50;7.80;99.90
4596;DHT22;2310;49.978;8.742;2022-12-07T17:20:51;7.80;99.90
4596;DHT22;2310;49.978;8.742;2022-12-07T17:24:52;7.90;99.90
4596;DHT22;2310;49.978;8.742;2022-12-07T17:28:54;7.80;99.90
4596;DHT22;2310;49.978;8.742;2022-12-07T17:32:55;7.70;99.90
4596;DHT22;2310;49.978;8.742;2022-12-07T17:36:56;7.70;99.90
4596;DHT22;2310;49.978;8.742;2022-12-07T17:40:57;7.70;99.90
4596;DHT22;2310;49.978;8.742;2022-12-07T17:44:58;7.70;99.90
4596;DHT22;2310;49.978;8.742;2022-12-07T17:49:01;7.80;99.90
4596;DHT22;2310;49.978;8.742;2022-12-07T17:53:02;7.80;99.90
4596;DHT22;2310;49.978;8.742;2022-12-07T17:57:12;7.80;99.90
4596;DHT22;2310;49.978;8.742;2022-12-07T18:01:13;7.60;99.90
4596;DHT22;2310;49.978;8.742;2022-12-07T18:05:15;7.70;99.90
4596;DHT22;2310;49.978;8.742;2022-12-07T18:09:16;7.60;99.90
4596;DHT22;2310;49.978;8.742;2022-12-07T18:13:17;7.60;99.90
4596;DHT22;2310;49.978;8.742;2022-12-07T18:17:36;7.50;99.90
4596;DHT22;2310;49.978;8.742;2022-12-07T18:21:37;7.50;99.90
4596;DHT22;2310;49.978;8.742;2022-12-07T18:25:39;7.60;99.90
4596;DHT22;2310;49.978;8.742;2022-12-07T18:29:42;7.50;99.90
4596;DHT22;2310;49.978;8.742;2022-12-07T18:33:44;7.50;99.90
4596;DHT22;2310;49.978;8.742;2022-12-07T18:37:46;7.50;99.90
4596;DHT22;2310;49.978;8.742;2022-12-07T18:41:47;7.40;99.90
4596;DHT22;2310;49.978;8.742;2022-12-07T18:45:48;7.40;99.90
4596;DHT22;2310;49.978;8.742;2022-12-07T18:49:51;7.40;99.90
4596;DHT22;2310;49.978;8.742;2022-12-07T18:53:55;7.40;99.90
4596;DHT22;2310;49.978;8.742;2022-12-07T18:57:57;7.30;99.90
4596;DHT22;2310;49.978;8.742;2022-12-07T19:01:59;7.40;99.90
4596;DHT22;2310;49.978;8.742;2022-12-07T19:06:06;7.30;99.90
4596;DHT22;2310;49.978;8.742;2022-12-07T19:10:08;7.20;99.90
4596;DHT22;2310;49.978;8.742;2022-12-07T19:14:09;7.20;99.90
4596;DHT22;2310;49.978;8.742;2022-12-07T19:18:11;7.30;99.90
4596;DHT22;2310;49.978;8.742;2022-12-07T19:22:14;7.20;99.90
4596;DHT22;2310;49.978;8.742;2022-12-07T19:26:16;7.20;99.90
4596;DHT22;2310;49.978;8.742;2022-12-07T19:30:17;7.10;99.90
4596;DHT22;2310;49.978;8.742;2022-12-07T19:34:18;7.20;99.90
4596;DHT22;2310;49.978;8.742;2022-12-07T19:38:20;7.20;99.90
4596;DHT22;2310;49.978;8.742;2022-12-07T19:42:21;7.20;99.90
4596;DHT22;2310;49.978;8.742;2022-12-07T19:46:23;7.10;99.90
4596;DHT22;2310;49.978;8.742;2022-12-07T19:50:24;7.00;99.90
4596;DHT22;2310;49.978;8.742;2022-12-07T19:54:27;7.00;99.90
4596;DHT22;2310;49.978;8.742;2022-12-07T19:58:29;7.00;99.90
4596;DHT22;2310;49.978;8.742;2022-12-07T20:02:30;7.10;99.90
4596;DHT22;2310;49.978;8.742;2022-12-07T20:06:32;7.20;99.90
4596;DHT22;2310;49.978;8.742;2022-12-07T20:10:33;7.10;99.90
4596;DHT22;2310;49.978;8.742;2022-12-07T20:14:35;7.00;99.90
4596;DHT22;2310;49.978;8.742;2022-12-07T20:18:36;6.70;99.90
4596;DHT22;2310;49.978;8.742;2022-12-07T20:22:37;6.70;99.90
4596;DHT22;2310;49.978;8.742;2022-12-07T20:26:39;6.70;99.90
4596;DHT22;2310;49.978;8.742;2022-12-07T20:30:51;6.80;99.90
4596;DHT22;2310;49.978;8.742;2022-12-07T20:34:53;7.00;99.90
4596;DHT22;2310;49.978;8.742;2022-12-07T20:38:54;6.90;99.90
4596;DHT22;2310;49.978;8.742;2022-12-07T20:42:58;6.80;99.90
4596;DHT22;2310;49.978;8.742;2022-12-07T20:46:59;6.80;99.90
4596;DHT22;2310;49.978;8.742;2022-12-07T20:51:05;6.80;99.90
4596;DHT22;2310;49.978;8.742;2022-12-07T20:55:07;6.60;99.90
4596;DHT22;2310;49.978;8.742;2022-12-07T20:59:11;6.70;99.90
4596;DHT22;2310;49.978;8.742;2022-12-07T21:03:13;6.60;99.90
4596;DHT22;2310;49.978;8.742;2022-12-07T21:07:14;6.70;99.90
4596;DHT22;2310;49.978;8.742;2022-12-07T21:11:16;6.70;99.90
4596;DHT22;2310;49.978;8.742;2022-12-07T21:15:18;6.80;99.90
4596;DHT22;2310;49.978;8.742;2022-12-07T21:19:20;6.70;99.90
4596;DHT22;2310;49.978;8.742;2022-12-07T21:23:21;6.50;99.90
4596;DHT22;2310;49.978;8.742;2022-12-07T21:27:22;6.50;99.90
4596;DHT22;2310;49.978;8.742;2022-12-07T21:31:23;6.60;99.90
4596;DHT22;2310;49.978;8.742;2022-12-07T21:35:25;6.60;99.90
4596;DHT22;2310;49.978;8.742;2022-12-07T21:39:27;6.70;99.90
4596;DHT22;2310;49.978;8.742;2022-12-07T21:43:28;6.80;99.90
4596;DHT22;2310;49.978;8.742;2022-12-07T21:47:31;6.70;99.90
4596;DHT22;2310;49.978;8.742;2022-12-07T21:51:33;6.60;99.90
4596;DHT22;2310;49.978;8.742;2022-12-07T21:55:39;6.50;99.90
4596;DHT22;2310;49.978;8.742;2022-12-07T21:59:41;6.50;99.90
4596;DHT22;2310;49.978;8.742;2022-12-07T22:03:42;6.60;99.90
4596;DHT22;2310;49.978;8.742;2022-12-07T22:07:43;6.40;99.90
4596;DHT22;2310;49.978;8.742;2022-12-07T22:11:45;6.30;99.90
4596;DHT22;2310;49.978;8.742;2022-12-07T22:15:46;6.40;99.90
4596;DHT22;2310;49.978;8.742;2022-12-07T22:19:48;6.40;99.90
4596;DHT22;2310;49.978;8.742;2022-12-07T22:23:49;6.30;99.90
4596;DHT22;2310;49.978;8.742;2022-12-07T22:27:50;6.20;99.90
4596;DHT22;2310;49.978;8.742;2022-12-07T22:31:51;6.20;99.90
4596;DHT22;2310;49.978;8.742;2022-12-07T22:35:54;6.30;99.90
4596;DHT22;2310;49.978;8.742;2022-12-07T22:39:55;6.20;99.90
4596;DHT22;2310;49.978;8.742;2022-12-07T22:43:57;6.00;99.90
4596;DHT22;2310;49.978;8.742;2022-12-07T22:47:59;6.10;99.90
4596;DHT22;2310;49.978;8.742;2022-12-07T22:52:00;6.10;99.90
4596;DHT22;2310;49.978;8.742;2022-12-07T22:56:01;6.30;99.90
4596;DHT22;2310;49.978;8.742;2022-12-07T23:00:04;6.20;99.90
4596;DHT22;2310;49.978;8.742;2022-12-07T23:04:08;6.20;99.90
4596;DHT22;2310;49.978;8.742;2022-12-07T23:08:10;6.40;99.90
4596;DHT22;2310;49.978;8.742;2022-12-07T23:12:11;6.20;99.90
4596;DHT22;2310;49.978;8.742;2022-12-07T23:16:31;6.40;99.90
4596;DHT22;2310;49.978;8.742;2022-12-07T23:20:32;6.50;99.90
4596;DHT22;2310;49.978;8.742;2022-12-07T23:24:34;6.40;99.90
4596;DHT22;2310;49.978;8.742;2022-12-07T23:28:36;6.50;99.90
4596;DHT22;2310;49.978;8.742;2022-12-07T23:32:38;6.40;99.90
4596;DHT22;2310;49.978;8.742;2022-12-07T23:36:39;6.60;99.90
4596;DHT22;2310;49.978;8.742;2022-12-07T23:40:42;6.50;99.90
4596;DHT22;2310;49.978;8.742;2022-12-07T23:44:44;6.40;99.90
4596;DHT22;2310;49.978;8.742;2022-12-07T23:48:46;6.40;99.90
4596;DHT22;2310;49.978;8.742;2022-12-07T23:52:48;6.50;99.90
4596;DHT22;2310;49.978;8.742;2022-12-07T23:56:49;6.40;99.90
